Time;durP1;ratioP1;P1;durP2;ratioP2;P2;SDS_P1;SDS_P2;PMS_P1;PMS_P2;Temp;Humidity;BMP_temperature;BMP_pressure;BME280_temperature;BME280_humidity;BME280_pressure;Samples;Min_cycle;Max_cycle;Signal;HPM_P1;HPM_P2
2023/05/30 00:01:01;;;;;;;2.90;1.70;;;23.50;53.00;;;;;;4952942;28;21061;-72
2023/05/30 00:03:29;;;;;;;2.70;1.77;;;23.50;53.30;;;;;;4939115;29;20983;-71
2023/05/30 00:05:58;;;;;;;4.03;2.20;;;23.50;53.50;;;;;;4949512;29;20535;-73
2023/05/30 00:08:26;;;;;;;4.03;1.97;;;23.50;53.00;;;;;;4946689;29;20526;-71
2023/05/30 00:10:56;;;;;;;2.83;1.63;;;23.50;53.10;;;;;;4947564;28;20456;-72
2023/05/30 00:13:28;;;;;;;2.30;1.70;;;23.50;53.50;;;;;;4941021;28;20540;-73
2023/05/30 00:15:58;;;;;;;2.27;1.83;;;23.50;53.70;;;;;;4942761;28;20479;-72
2023/05/30 00:18:34;;;;;;;2.83;2.00;;;23.50;52.90;;;;;;4944301;29;20548;-72
2023/05/30 00:21:03;;;;;;;3.77;2.00;;;23.50;53.20;;;;;;4949419;28;20450;-73
2023/05/30 00:23:32;;;;;;;2.60;1.90;;;23.40;53.40;;;;;;4946003;29;20453;-73
2023/05/30 00:26:01;;;;;;;3.07;2.40;;;23.40;53.60;;;;;;4954348;28;20696;-71
2023/05/30 00:28:30;;;;;;;2.10;1.37;;;23.50;53.70;;;;;;4962439;28;20978;-72
2023/05/30 00:31:00;;;;;;;2.70;2.03;;;23.40;53.30;;;;;;4948211;28;21162;-73
2023/05/30 00:33:29;;;;;;;3.70;2.00;;;23.40;53.30;;;;;;4946555;29;20460;-72
2023/05/30 00:35:57;;;;;;;3.40;2.30;;;23.50;53.60;;;;;;4941310;28;20476;-73
2023/05/30 00:38:26;;;;;;;3.87;2.07;;;23.40;53.30;;;;;;4946974;28;20562;-73
2023/05/30 00:40:54;;;;;;;2.40;1.83;;;23.40;53.20;;;;;;4947785;28;20491;-73
2023/05/30 00:43:23;;;;;;;2.30;1.67;;;23.40;53.20;;;;;;4935846;28;20520;-73
2023/05/30 00:45:54;;;;;;;3.23;1.70;;;23.40;53.50;;;;;;4965170;28;20482;-72
2023/05/30 00:48:25;;;;;;;1.87;1.67;;;23.40;53.70;;;;;;4962271;28;20533;-73
2023/05/30 00:50:54;;;;;;;2.60;1.40;;;23.40;53.50;;;;;;4965287;28;20447;-70
2023/05/30 00:53:24;;;;;;;2.60;2.10;;;23.40;53.50;;;;;;4940078;29;20446;-72
2023/05/30 00:55:53;;;;;;;3.03;1.73;;;23.30;53.20;;;;;;4948571;28;20534;-70
2023/05/30 00:58:23;;;;;;;2.13;1.60;;;23.30;53.00;;;;;;4964394;28;20430;-72
2023/05/30 01:00:52;;;;;;;2.10;1.60;;;23.30;52.80;;;;;;4947382;28;20497;-72
2023/05/30 01:03:28;;;;;;;2.43;1.80;;;23.40;52.90;;;;;;4983860;28;20441;-72
2023/05/30 01:05:57;;;;;;;2.93;1.60;;;23.30;53.00;;;;;;4969277;28;20479;-72
2023/05/30 01:08:26;;;;;;;3.30;1.93;;;23.30;53.10;;;;;;4966307;28;20465;-72
2023/05/30 01:11:11;;;;;;;4.33;1.83;;;23.30;53.20;;;;;;4967912;28;20454;-72
2023/05/30 01:13:49;;;;;;;2.60;1.73;;;23.30;53.30;;;;;;4961109;28;20454;-72
2023/05/30 01:16:24;;;;;;;3.40;1.87;;;23.30;53.00;;;;;;4969894;28;20557;-72
2023/05/30 01:19:02;;;;;;;2.17;1.97;;;23.30;54.80;;;;;;4961140;28;20448;-73
2023/05/30 01:21:33;;;;;;;2.93;1.80;;;23.30;53.60;;;;;;4943562;28;20445;-73
2023/05/30 01:24:15;;;;;;;2.60;1.60;;;23.30;53.80;;;;;;4962168;28;20836;-72
2023/05/30 01:26:57;;;;;;;2.50;1.80;;;23.30;53.70;;;;;;4952601;28;21008;-73
2023/05/30 01:29:29;;;;;;;3.13;1.50;;;23.30;54.00;;;;;;4968116;28;20553;-73
2023/05/30 01:31:59;;;;;;;3.33;1.70;;;23.30;53.50;;;;;;4990796;28;20823;-72
2023/05/30 01:34:29;;;;;;;2.40;1.50;;;23.20;53.20;;;;;;4972820;28;20561;-73
2023/05/30 01:36:58;;;;;;;2.13;1.63;;;23.20;52.90;;;;;;4980479;28;20473;-73
2023/05/30 01:39:26;;;;;;;2.37;1.73;;;23.20;53.00;;;;;;4955903;28;20456;-72
2023/05/30 01:42:02;;;;;;;2.50;1.30;;;23.20;53.10;;;;;;4982357;28;20461;-72
2023/05/30 01:44:37;;;;;;;2.10;1.73;;;23.20;52.90;;;;;;4979165;28;20538;-72
2023/05/30 01:47:13;;;;;;;4.07;2.10;;;23.20;53.20;;;;;;4969767;28;20976;-71
2023/05/30 01:49:47;;;;;;;1.67;1.27;;;23.20;53.00;;;;;;4937157;28;20445;-72
2023/05/30 01:52:20;;;;;;;3.40;1.90;;;23.20;52.60;;;;;;4961832;28;20472;-72
2023/05/30 01:54:55;;;;;;;3.20;1.70;;;23.20;52.70;;;;;;4945983;28;20481;-72
2023/05/30 01:57:26;;;;;;;2.70;1.70;;;23.20;52.60;;;;;;4953792;28;21033;-72
2023/05/30 01:59:58;;;;;;;1.77;1.40;;;23.20;52.80;;;;;;4946857;28;21027;-72
2023/05/30 02:02:26;;;;;;;6.60;1.50;;;23.20;52.90;;;;;;4942563;28;20518;-72
2023/05/30 02:04:55;;;;;;;4.73;2.10;;;23.20;53.40;;;;;;4952286;28;20478;-73
2023/05/30 02:07:23;;;;;;;4.77;1.70;;;23.20;52.80;;;;;;4947738;28;20480;-72
2023/05/30 02:09:52;;;;;;;3.23;2.10;;;23.20;52.90;;;;;;4943245;29;20513;-73
2023/05/30 02:12:20;;;;;;;2.50;1.83;;;23.20;53.20;;;;;;4948496;28;21033;-72
2023/05/30 02:14:48;;;;;;;5.00;1.47;;;23.20;53.50;;;;;;4964955;28;21006;-70
2023/05/30 02:17:20;;;;;;;4.13;2.03;;;23.10;52.60;;;;;;4942883;28;21026;-70
2023/05/30 02:19:49;;;;;;;3.70;1.90;;;23.10;52.40;;;;;;4949065;28;20575;-70
2023/05/30 02:22:18;;;;;;;3.90;1.60;;;23.10;52.70;;;;;;4975148;28;20815;-70
2023/05/30 02:24:47;;;;;;;2.87;1.50;;;23.10;52.60;;;;;;4982267;28;20500;-70
2023/05/30 02:27:15;;;;;;;2.90;1.40;;;23.10;52.70;;;;;;4969492;28;20467;-70
2023/05/30 02:29:44;;;;;;;3.00;1.87;;;23.10;52.90;;;;;;4950156;28;20461;-70
2023/05/30 02:32:12;;;;;;;2.10;1.70;;;23.10;52.70;;;;;;4962662;28;20553;-69
2023/05/30 02:34:42;;;;;;;3.60;1.93;;;23.10;52.90;;;;;;4950544;28;20474;-70
2023/05/30 02:37:13;;;;;;;2.10;1.70;;;23.10;52.80;;;;;;4955845;28;20549;-70
2023/05/30 02:39:41;;;;;;;1.80;1.50;;;23.10;52.90;;;;;;4949678;28;20448;-70
2023/05/30 02:42:10;;;;;;;2.50;1.67;;;23.00;52.90;;;;;;4967997;28;20576;-70
2023/05/30 02:44:39;;;;;;;4.50;1.60;;;23.00;53.40;;;;;;4968823;28;20469;-69
2023/05/30 02:47:09;;;;;;;1.97;1.30;;;23.00;53.40;;;;;;4981815;28;20841;-69
2023/05/30 02:49:37;;;;;;;3.60;1.47;;;23.00;53.10;;;;;;4974906;28;20500;-70
2023/05/30 02:52:08;;;;;;;3.23;1.87;;;23.00;53.00;;;;;;4959467;28;20480;-71
2023/05/30 02:54:48;;;;;;;3.67;1.73;;;23.00;52.70;;;;;;4958830;28;20477;-70
2023/05/30 02:57:40;;;;;;;3.00;1.97;;;23.00;52.80;;;;;;4949944;28;20504;-70
2023/05/30 03:00:22;;;;;;;1.80;1.50;;;23.00;52.80;;;;;;4950904;29;20461;-71
2023/05/30 03:03:08;;;;;;;4.03;2.40;;;23.00;52.80;;;;;;4965402;28;20950;-69
2023/05/30 03:05:38;;;;;;;3.20;1.87;;;23.00;52.80;;;;;;4967169;28;20450;-70
2023/05/30 03:08:12;;;;;;;1.70;1.33;;;23.00;52.80;;;;;;4949298;29;22153;-70
2023/05/30 03:10:54;;;;;;;2.83;1.60;;;22.90;52.90;;;;;;4950516;28;20442;-70
2023/05/30 03:13:23;;;;;;;3.50;2.03;;;23.00;53.00;;;;;;4965829;28;20446;-70
2023/05/30 03:15:52;;;;;;;2.20;1.60;;;22.90;52.70;;;;;;4966151;28;20469;-71
2023/05/30 03:18:21;;;;;;;3.00;1.60;;;22.90;52.80;;;;;;4949314;29;20488;-70
2023/05/30 03:20:50;;;;;;;3.20;1.60;;;22.90;52.80;;;;;;4957454;28;20448;-70
2023/05/30 03:23:20;;;;;;;1.80;1.57;;;22.90;52.90;;;;;;4950651;28;20446;-69
2023/05/30 03:25:49;;;;;;;2.67;1.60;;;22.90;52.90;;;;;;4950379;28;20536;-69
2023/05/30 03:28:17;;;;;;;4.17;2.23;;;22.90;52.80;;;;;;4950097;28;20950;-70
2023/05/30 03:31:06;;;;;;;2.63;1.80;;;22.90;52.90;;;;;;4948527;28;20635;-70
2023/05/30 03:33:35;;;;;;;3.10;1.50;;;22.90;52.80;;;;;;4950988;28;20459;-68
2023/05/30 03:36:05;;;;;;;1.80;1.30;;;22.90;53.20;;;;;;4951032;28;20468;-71
2023/05/30 03:38:35;;;;;;;2.90;1.50;;;22.90;53.20;;;;;;4963779;28;20534;-69
2023/05/30 03:41:03;;;;;;;1.67;1.23;;;22.90;52.90;;;;;;4949799;28;20473;-70
2023/05/30 03:43:32;;;;;;;2.67;1.30;;;22.80;52.50;;;;;;4958090;28;20930;-70
2023/05/30 03:46:00;;;;;;;2.10;1.33;;;22.80;53.00;;;;;;4948028;28;20493;-70
2023/05/30 03:48:30;;;;;;;2.17;1.43;;;22.80;53.10;;;;;;4964049;28;20530;-70
2023/05/30 03:50:59;;;;;;;4.27;1.80;;;22.80;53.40;;;;;;4959879;28;20550;-69
2023/05/30 03:53:27;;;;;;;2.30;1.40;;;22.80;53.00;;;;;;4962573;28;20453;-69
2023/05/30 03:55:59;;;;;;;2.50;1.50;;;22.80;53.50;;;;;;4964453;28;20476;-70
2023/05/30 03:58:27;;;;;;;3.80;1.77;;;22.80;53.60;;;;;;4949149;28;20450;-70
2023/05/30 04:00:56;;;;;;;2.20;1.67;;;22.80;53.80;;;;;;4948185;28;20497;-70
2023/05/30 04:03:25;;;;;;;2.73;1.60;;;22.80;53.00;;;;;;4964723;28;20822;-70
2023/05/30 04:05:55;;;;;;;2.53;1.40;;;22.80;53.20;;;;;;4965207;28;20527;-70
2023/05/30 04:08:23;;;;;;;2.93;1.93;;;22.80;53.30;;;;;;4962899;28;21005;-70
2023/05/30 04:10:52;;;;;;;3.37;1.80;;;22.80;53.20;;;;;;4948465;28;20818;-70
2023/05/30 04:13:23;;;;;;;2.67;1.70;;;22.80;53.40;;;;;;4963559;28;20450;-69
2023/05/30 04:15:51;;;;;;;2.23;1.40;;;22.70;53.30;;;;;;4965080;28;20821;-70
2023/05/30 04:18:20;;;;;;;2.40;1.63;;;22.70;53.30;;;;;;4954161;28;20879;-70
2023/05/30 04:20:49;;;;;;;2.60;1.70;;;22.70;53.20;;;;;;4957302;28;20451;-70
2023/05/30 04:23:18;;;;;;;4.90;2.00;;;22.70;53.30;;;;;;4964776;28;20786;-70
2023/05/30 04:25:47;;;;;;;2.47;1.23;;;22.70;53.20;;;;;;4947438;28;20460;-70
2023/05/30 04:28:17;;;;;;;2.97;1.43;;;22.70;53.50;;;;;;4949262;28;21012;-70
2023/05/30 04:30:48;;;;;;;3.67;1.47;;;22.70;53.40;;;;;;4963445;28;20480;-71
2023/05/30 04:33:19;;;;;;;2.30;1.77;;;22.70;53.70;;;;;;4961217;28;20511;-69
2023/05/30 04:35:48;;;;;;;5.40;2.00;;;22.70;53.60;;;;;;4956507;28;20519;-70
2023/05/30 04:38:20;;;;;;;4.87;2.10;;;22.70;53.50;;;;;;4947403;28;20507;-70
2023/05/30 04:40:49;;;;;;;2.70;1.43;;;22.70;53.60;;;;;;4945496;28;20532;-70
2023/05/30 04:43:19;;;;;;;3.00;1.63;;;22.60;53.70;;;;;;4949926;28;20487;-71
2023/05/30 04:45:50;;;;;;;2.73;1.63;;;22.60;53.40;;;;;;4959787;28;20481;-70
2023/05/30 04:48:36;;;;;;;2.90;1.90;;;22.70;53.50;;;;;;4957054;28;20481;-71
2023/05/30 04:51:05;;;;;;;3.57;1.60;;;22.60;53.40;;;;;;4967811;28;20456;-70
2023/05/30 04:53:34;;;;;;;3.70;2.27;;;22.60;53.40;;;;;;4967163;28;20995;-71
2023/05/30 04:56:04;;;;;;;1.77;1.40;;;22.60;53.80;;;;;;4968269;28;20468;-70
2023/05/30 04:58:32;;;;;;;2.23;1.53;;;22.60;53.80;;;;;;4976247;28;20435;-70
2023/05/30 05:01:02;;;;;;;2.73;1.50;;;22.60;54.00;;;;;;4964947;28;20468;-71
2023/05/30 05:03:32;;;;;;;3.20;1.93;;;22.60;54.00;;;;;;4961663;28;20542;-71
2023/05/30 05:06:01;;;;;;;2.50;1.53;;;22.60;53.60;;;;;;4929598;29;20906;-69
2023/05/30 05:08:29;;;;;;;2.60;1.67;;;22.50;53.70;;;;;;4963166;28;20476;-70
2023/05/30 05:10:58;;;;;;;3.10;1.70;;;22.60;53.90;;;;;;4945550;28;20488;-70
2023/05/30 05:13:26;;;;;;;3.20;1.50;;;22.60;54.10;;;;;;4948165;28;20453;-70
2023/05/30 05:15:55;;;;;;;2.93;1.70;;;22.50;54.30;;;;;;4946870;28;20470;-70
2023/05/30 05:18:25;;;;;;;2.27;1.37;;;22.60;54.20;;;;;;4946172;29;20843;-70
2023/05/30 05:20:54;;;;;;;2.60;2.03;;;22.60;54.10;;;;;;4962551;28;20535;-69
2023/05/30 05:23:23;;;;;;;2.83;1.70;;;22.60;54.20;;;;;;4962071;28;20450;-70
2023/05/30 05:25:51;;;;;;;3.27;1.80;;;22.50;54.30;;;;;;4947293;28;20481;-70
2023/05/30 05:28:20;;;;;;;3.87;1.77;;;22.50;53.80;;;;;;4946894;28;20481;-72
2023/05/30 05:30:49;;;;;;;2.90;1.67;;;22.50;53.50;;;;;;4947396;28;20441;-73
2023/05/30 05:33:17;;;;;;;1.97;1.77;;;22.50;53.60;;;;;;4940468;28;20453;-73
2023/05/30 05:35:48;;;;;;;3.57;1.83;;;22.50;53.70;;;;;;4944389;28;20496;-73
2023/05/30 05:38:17;;;;;;;3.50;1.80;;;22.50;53.50;;;;;;4961262;28;20975;-72
2023/05/30 05:40:46;;;;;;;3.90;1.90;;;22.50;53.80;;;;;;4943000;28;20495;-73
2023/05/30 05:43:14;;;;;;;5.20;2.13;;;22.50;54.00;;;;;;4960594;28;20446;-72
2023/05/30 05:45:43;;;;;;;4.40;1.57;;;22.50;53.50;;;;;;4963066;28;20483;-71
2023/05/30 05:48:11;;;;;;;3.47;1.60;;;22.50;53.90;;;;;;4961419;28;20490;-72
2023/05/30 05:50:40;;;;;;;2.63;1.97;;;22.50;53.70;;;;;;4960712;28;20504;-72
2023/05/30 05:53:10;;;;;;;3.50;1.63;;;22.50;53.70;;;;;;4957118;28;20477;-71
2023/05/30 05:55:39;;;;;;;3.93;1.90;;;22.50;54.00;;;;;;4940557;28;20480;-72
2023/05/30 05:58:07;;;;;;;3.37;1.83;;;22.50;53.60;;;;;;4962500;28;20472;-72
2023/05/30 06:00:36;;;;;;;6.10;2.07;;;22.50;53.10;;;;;;4944002;28;20464;-72
2023/05/30 06:03:05;;;;;;;3.77;1.80;;;22.50;53.70;;;;;;4946532;28;20487;-71
2023/05/30 06:05:36;;;;;;;2.77;1.73;;;22.50;53.90;;;;;;4946975;29;20993;-72
2023/05/30 06:08:05;;;;;;;2.83;1.87;;;22.50;54.10;;;;;;4959366;28;20484;-72
2023/05/30 06:10:35;;;;;;;6.67;1.70;;;22.50;54.10;;;;;;4952167;28;20444;-72
2023/05/30 06:13:03;;;;;;;3.73;1.90;;;22.40;54.00;;;;;;4946598;28;20571;-73
2023/05/30 06:15:32;;;;;;;4.43;1.90;;;22.50;54.10;;;;;;4947128;29;20485;-71
2023/05/30 06:18:00;;;;;;;4.10;1.83;;;22.50;54.30;;;;;;4957084;28;20479;-71
2023/05/30 06:20:29;;;;;;;4.63;1.80;;;22.40;54.20;;;;;;4946270;29;20490;-72
2023/05/30 06:22:58;;;;;;;3.10;2.00;;;22.40;54.00;;;;;;4944832;28;21044;-72
2023/05/30 06:25:27;;;;;;;2.30;1.50;;;22.50;55.80;;;;;;4943910;29;20470;-71
2023/05/30 06:27:57;;;;;;;3.60;2.10;;;22.40;54.60;;;;;;4960948;28;20917;-71
2023/05/30 06:30:26;;;;;;;4.87;1.90;;;22.40;54.30;;;;;;4963073;28;20794;-70
2023/05/30 06:32:55;;;;;;;3.67;2.20;;;22.40;53.80;;;;;;4945727;28;20480;-69
2023/05/30 06:35:23;;;;;;;2.73;1.70;;;22.40;54.10;;;;;;4947465;28;20468;-70
2023/05/30 06:37:52;;;;;;;3.40;1.70;;;22.40;53.20;;;;;;4944184;28;20508;-69
2023/05/30 06:40:20;;;;;;;2.40;1.77;;;22.40;53.50;;;;;;4957176;28;20452;-68
2023/05/30 06:42:49;;;;;;;2.57;1.80;;;22.40;53.20;;;;;;4961748;28;20488;-69
2023/05/30 06:45:19;;;;;;;3.53;2.00;;;22.40;53.70;;;;;;4959420;28;20825;-68
2023/05/30 06:47:48;;;;;;;5.87;1.70;;;22.40;53.70;;;;;;4946517;28;20919;-70
2023/05/30 06:50:16;;;;;;;2.47;1.40;;;22.40;53.70;;;;;;4941919;28;20492;-69
2023/05/30 06:52:45;;;;;;;4.27;2.10;;;22.40;55.20;;;;;;4962644;28;21006;-70
2023/05/30 06:55:15;;;;;;;6.70;2.53;;;22.40;53.50;;;;;;4941904;28;20515;-70
2023/05/30 06:57:44;;;;;;;3.03;2.00;;;22.40;53.50;;;;;;4944968;28;20478;-68
2023/05/30 07:00:17;;;;;;;4.00;2.60;;;22.40;53.70;;;;;;4941865;29;20503;-72
2023/05/30 07:02:47;;;;;;;3.33;2.73;;;22.30;52.80;;;;;;4959444;28;21001;-72
2023/05/30 07:05:16;;;;;;;4.77;2.13;;;22.40;53.40;;;;;;4943715;29;20473;-72
2023/05/30 07:07:45;;;;;;;3.60;2.20;;;22.40;53.10;;;;;;4950999;28;20569;-72
2023/05/30 07:10:14;;;;;;;3.73;2.47;;;22.40;53.10;;;;;;4945817;28;20459;-72
2023/05/30 07:12:42;;;;;;;3.13;2.43;;;22.30;52.80;;;;;;4945100;28;20731;-72
2023/05/30 07:15:11;;;;;;;3.50;2.50;;;22.40;52.10;;;;;;4946873;28;21078;-72
2023/05/30 07:17:40;;;;;;;2.00;1.80;;;22.40;52.60;;;;;;4975495;28;20554;-72
2023/05/30 07:20:10;;;;;;;7.10;2.87;;;22.40;53.10;;;;;;4979038;28;20462;-71
2023/05/30 07:22:40;;;;;;;2.53;2.00;;;22.30;52.00;;;;;;4966174;28;20466;-73
2023/05/30 07:25:09;;;;;;;2.77;2.00;;;22.30;52.50;;;;;;4961120;28;20468;-71
2023/05/30 07:27:38;;;;;;;2.33;2.03;;;22.40;53.40;;;;;;4958565;28;20494;-71
2023/05/30 07:30:07;;;;;;;4.23;2.23;;;22.40;53.70;;;;;;4966113;28;20470;-71
2023/05/30 07:32:36;;;;;;;3.00;2.53;;;22.30;53.20;;;;;;4944728;28;20460;-72
2023/05/30 07:35:05;;;;;;;3.90;1.80;;;22.30;53.40;;;;;;4949359;29;20469;-72
2023/05/30 07:37:37;;;;;;;3.30;2.20;;;22.30;53.90;;;;;;4957872;28;20472;-71
2023/05/30 07:40:07;;;;;;;4.20;2.00;;;22.30;53.70;;;;;;4964231;28;20908;-72
2023/05/30 07:42:37;;;;;;;4.10;2.87;;;22.30;53.90;;;;;;4943411;29;20473;-71
2023/05/30 07:45:07;;;;;;;2.93;2.30;;;22.30;53.90;;;;;;4965098;28;20473;-70
2023/05/30 07:47:36;;;;;;;3.00;2.47;;;22.30;54.00;;;;;;4964532;28;20479;-72
2023/05/30 07:50:06;;;;;;;6.97;3.00;;;22.30;54.00;;;;;;4950205;28;20472;-71
2023/05/30 07:52:36;;;;;;;2.37;2.00;;;22.30;53.90;;;;;;4959256;28;20503;-72
2023/05/30 07:55:06;;;;;;;3.93;2.63;;;22.30;54.10;;;;;;4964578;28;20855;-71
2023/05/30 07:57:35;;;;;;;4.90;2.90;;;22.30;54.00;;;;;;4957929;28;20477;-72
2023/05/30 08:00:08;;;;;;;2.33;2.13;;;22.30;54.00;;;;;;4950558;28;20449;-73
2023/05/30 08:02:39;;;;;;;4.10;2.60;;;22.30;53.90;;;;;;4943095;28;20480;-72
2023/05/30 08:05:08;;;;;;;3.50;2.30;;;22.30;53.90;;;;;;4946567;29;20829;-72
2023/05/30 08:07:36;;;;;;;3.50;2.40;;;22.30;53.80;;;;;;4964161;28;20930;-73
2023/05/30 08:10:09;;;;;;;3.83;2.10;;;22.30;53.80;;;;;;4961693;28;20503;-72
2023/05/30 08:12:38;;;;;;;9.00;7.30;;;22.30;54.00;;;;;;4958093;28;20471;-71
2023/05/30 08:15:09;;;;;;;14.63;7.03;;;22.40;49.60;;;;;;4969437;28;20475;-72
2023/05/30 08:17:40;;;;;;;17.37;9.13;;;22.10;45.30;;;;;;4976840;28;21030;-72
2023/05/30 08:20:12;;;;;;;15.10;8.63;;;22.00;45.80;;;;;;4982818;28;21518;-71
2023/05/30 08:22:41;;;;;;;14.00;7.43;;;21.80;45.00;;;;;;4954197;28;20692;-73
2023/05/30 08:25:11;;;;;;;12.37;7.20;;;21.80;45.20;;;;;;4948233;29;20547;-71
2023/05/30 08:27:42;;;;;;;10.17;6.30;;;21.80;45.90;;;;;;4950213;28;20491;-72
2023/05/30 08:30:12;;;;;;;6.73;5.70;;;21.80;46.40;;;;;;4964998;28;20518;-72
2023/05/30 08:32:41;;;;;;;14.77;7.13;;;21.90;47.00;;;;;;4981699;28;21153;-71
2023/05/30 08:35:10;;;;;;;14.47;6.63;;;21.90;47.60;;;;;;4973052;28;20463;-72
2023/05/30 08:37:39;;;;;;;5.87;4.97;;;22.00;48.10;;;;;;4965053;28;21015;-70
2023/05/30 08:40:12;;;;;;;6.70;5.93;;;22.00;48.50;;;;;;4958769;28;20444;-72
2023/05/30 08:42:42;;;;;;;8.47;5.60;;;22.00;48.80;;;;;;4945016;28;20559;-72
2023/05/30 08:45:13;;;;;;;8.30;4.87;;;22.00;48.90;;;;;;4948500;29;20466;-69
2023/05/30 08:47:43;;;;;;;5.80;4.83;;;22.00;49.10;;;;;;4954423;28;21016;-72
2023/05/30 08:50:12;;;;;;;9.47;5.40;;;22.00;49.50;;;;;;4950488;28;20467;-73
2023/05/30 08:52:43;;;;;;;5.47;4.97;;;22.00;49.60;;;;;;4960186;28;20886;-72
2023/05/30 08:55:16;;;;;;;9.13;5.60;;;22.00;49.70;;;;;;4948904;29;21054;-72
2023/05/30 08:57:52;;;;;;;7.93;4.90;;;22.10;50.20;;;;;;4946798;28;20483;-71
2023/05/30 09:00:22;;;;;;;9.13;5.20;;;22.00;50.00;;;;;;4950366;28;20432;-71
2023/05/30 09:02:55;;;;;;;6.07;5.27;;;22.10;50.00;;;;;;4949905;28;21032;-72
2023/05/30 09:05:25;;;;;;;6.70;5.83;;;22.10;50.00;;;;;;4947702;28;20464;-72
2023/05/30 09:07:56;;;;;;;8.10;5.60;;;22.10;50.20;;;;;;4960045;28;20480;-72
2023/05/30 09:10:27;;;;;;;6.33;4.67;;;22.10;50.50;;;;;;4961675;28;20473;-71
2023/05/30 09:12:59;;;;;;;8.07;5.33;;;22.10;50.40;;;;;;4963550;28;21000;-71
2023/05/30 09:15:28;;;;;;;6.40;4.80;;;22.10;49.70;;;;;;4948811;28;20499;-72
2023/05/30 09:17:57;;;;;;;6.30;5.13;;;22.10;50.30;;;;;;4947098;28;20472;-71
2023/05/30 09:20:30;;;;;;;8.53;5.20;;;22.10;50.80;;;;;;4954884;28;20451;-71
2023/05/30 09:22:59;;;;;;;7.10;4.80;;;22.10;51.00;;;;;;4964109;28;20475;-71
2023/05/30 09:25:42;;;;;;;7.00;4.93;;;22.10;50.80;;;;;;4967494;28;20458;-71
2023/05/30 09:28:12;;;;;;;9.77;5.63;;;22.10;51.00;;;;;;4981051;28;21450;-71
2023/05/30 09:30:54;;;;;;;9.70;6.77;;;22.10;50.50;;;;;;4981593;28;20632;-72
2023/05/30 09:33:44;;;;;;;11.00;5.40;;;22.10;47.70;;;;;;4962554;28;20801;-72
2023/05/30 09:36:19;;;;;;;8.33;5.30;;;22.10;48.60;;;;;;4949223;28;20472;-70
2023/05/30 09:38:55;;;;;;;12.50;5.70;;;22.00;48.50;;;;;;4960814;28;20443;-72
2023/05/30 09:41:26;;;;;;;8.50;5.77;;;22.00;48.70;;;;;;4963038;28;20468;-72
2023/05/30 09:43:56;;;;;;;5.90;5.20;;;22.00;49.10;;;;;;4948131;28;22057;-70
2023/05/30 09:46:26;;;;;;;7.10;4.83;;;22.10;49.50;;;;;;4950600;28;20444;-70
2023/05/30 09:48:55;;;;;;;7.20;4.67;;;22.10;49.60;;;;;;4958238;28;20455;-71
2023/05/30 09:51:25;;;;;;;7.50;5.23;;;22.00;50.00;;;;;;4951354;28;21043;-72
2023/05/30 09:54:00;;;;;;;7.67;4.70;;;22.00;50.20;;;;;;4946214;29;20452;-71
2023/05/30 09:56:36;;;;;;;10.10;4.87;;;22.00;50.50;;;;;;4955225;28;20447;-72
2023/05/30 09:59:32;;;;;;;6.70;5.27;;;22.10;50.40;;;;;;4948977;29;20799;-71
2023/05/30 10:02:02;;;;;;;6.20;4.60;;;22.00;50.50;;;;;;4948585;28;20478;-72
2023/05/30 10:04:31;;;;;;;6.70;4.77;;;22.10;51.00;;;;;;4947862;29;20511;-72
2023/05/30 10:07:00;;;;;;;5.60;5.10;;;22.00;51.00;;;;;;4962095;28;20571;-71
2023/05/30 10:09:28;;;;;;;5.63;4.33;;;22.00;51.20;;;;;;4961841;28;20515;-71
2023/05/30 10:12:03;;;;;;;6.20;4.87;;;22.00;51.00;;;;;;4936745;28;20487;-71
2023/05/30 10:14:31;;;;;;;6.00;4.37;;;22.10;51.30;;;;;;4939176;29;20467;-69
2023/05/30 10:17:04;;;;;;;5.63;4.40;;;22.00;51.10;;;;;;4941948;28;20462;-69
2023/05/30 10:19:40;;;;;;;7.90;4.97;;;22.00;51.20;;;;;;4948230;28;20437;-69
2023/05/30 10:22:09;;;;;;;5.10;4.27;;;22.00;51.30;;;;;;4943418;28;20979;-70
2023/05/30 10:24:42;;;;;;;5.70;4.30;;;22.00;51.30;;;;;;4944751;29;20471;-69
2023/05/30 10:27:20;;;;;;;7.07;4.70;;;22.00;51.30;;;;;;4943582;28;20483;-69
2023/05/30 10:29:52;;;;;;;6.07;4.03;;;22.00;51.20;;;;;;4940456;29;20803;-70
2023/05/30 10:32:26;;;;;;;9.50;4.10;;;22.00;51.20;;;;;;4947703;28;20453;-70
2023/05/30 10:35:06;;;;;;;4.93;4.47;;;22.00;50.80;;;;;;4959307;28;20528;-69
2023/05/30 10:37:37;;;;;;;9.00;5.23;;;22.00;50.50;;;;;;4944003;28;20522;-68
2023/05/30 10:40:19;;;;;;;5.53;4.30;;;22.10;50.80;;;;;;4942834;29;20448;-69
2023/05/30 10:43:00;;;;;;;6.70;4.93;;;22.10;51.30;;;;;;4935270;28;20481;-70
2023/05/30 10:45:43;;;;;;;6.90;4.43;;;22.10;50.10;;;;;;4946134;29;20448;-69
2023/05/30 10:48:22;;;;;;;7.50;5.07;;;22.10;50.80;;;;;;4953998;28;20481;-69
2023/05/30 10:50:55;;;;;;;4.73;4.27;;;22.10;50.00;;;;;;4962975;28;20467;-69
2023/05/30 10:53:29;;;;;;;4.63;3.30;;;22.10;50.60;;;;;;4946828;28;20444;-69
2023/05/30 10:55:59;;;;;;;5.23;4.40;;;22.10;51.40;;;;;;4963240;28;20625;-69
2023/05/30 10:58:37;;;;;;;6.30;5.40;;;22.10;51.30;;;;;;4947139;28;21049;-69
2023/05/30 11:01:26;;;;;;;5.00;4.50;;;22.10;51.30;;;;;;4946598;28;20451;-69
2023/05/30 11:04:04;;;;;;;6.17;4.30;;;22.10;50.00;;;;;;4961045;28;21011;-70
2023/05/30 11:06:34;;;;;;;4.60;4.07;;;22.10;50.60;;;;;;4949233;28;20854;-69
2023/05/30 11:09:07;;;;;;;4.97;4.40;;;22.10;50.80;;;;;;4953812;28;21051;-68
2023/05/30 11:11:43;;;;;;;9.40;5.80;;;22.10;51.00;;;;;;4951671;29;20568;-69
2023/05/30 11:14:15;;;;;;;4.50;4.10;;;22.10;50.50;;;;;;4945544;29;20510;-69
2023/05/30 11:16:55;;;;;;;6.13;4.90;;;22.10;51.30;;;;;;4949224;28;20498;-69
2023/05/30 11:19:27;;;;;;;5.70;4.10;;;22.10;51.30;;;;;;4966514;28;20436;-69
2023/05/30 11:22:00;;;;;;;4.87;4.30;;;22.10;51.60;;;;;;4954365;28;20442;-69
2023/05/30 11:24:30;;;;;;;7.60;5.13;;;22.10;51.40;;;;;;4960307;28;20509;-70
2023/05/30 11:27:09;;;;;;;4.90;4.13;;;22.10;51.70;;;;;;4961272;28;20527;-70
2023/05/30 11:29:48;;;;;;;3.97;3.57;;;22.10;51.30;;;;;;4941077;28;20431;-69
2023/05/30 11:32:20;;;;;;;5.40;3.77;;;22.10;51.40;;;;;;4943150;28;20476;-69
2023/05/30 11:34:58;;;;;;;6.20;4.13;;;22.10;51.30;;;;;;4949656;28;20825;-70
2023/05/30 11:37:32;;;;;;;4.27;3.50;;;22.10;51.70;;;;;;4955678;28;20538;-69
2023/05/30 11:40:03;;;;;;;4.80;4.00;;;22.10;51.80;;;;;;4947826;28;20463;-69
2023/05/30 11:42:32;;;;;;;4.30;3.60;;;22.10;51.60;;;;;;4946427;28;20575;-68
2023/05/30 11:45:02;;;;;;;4.50;3.50;;;22.10;51.30;;;;;;4965600;28;20902;-70
2023/05/30 11:47:31;;;;;;;5.37;4.10;;;22.20;52.10;;;;;;4959553;28;20475;-68
2023/05/30 11:50:14;;;;;;;4.60;3.97;;;22.10;51.80;;;;;;4963183;28;20444;-68
2023/05/30 11:52:43;;;;;;;3.93;3.53;;;22.10;51.30;;;;;;4950717;28;20471;-70
2023/05/30 11:55:12;;;;;;;4.77;3.87;;;22.10;52.10;;;;;;4961718;28;20473;-68
2023/05/30 11:57:41;;;;;;;5.53;4.20;;;22.10;51.90;;;;;;4956869;28;20994;-69
2023/05/30 12:00:13;;;;;;;4.63;3.67;;;22.10;51.30;;;;;;4946606;28;20448;-69
2023/05/30 12:02:43;;;;;;;4.30;3.90;;;22.10;51.40;;;;;;4946203;28;20472;-69
2023/05/30 12:05:14;;;;;;;4.77;4.37;;;22.10;51.70;;;;;;4965359;28;20472;-69
2023/05/30 12:07:43;;;;;;;4.30;3.90;;;22.10;51.80;;;;;;4963467;28;20468;-69
2023/05/30 12:10:12;;;;;;;5.10;3.67;;;22.20;52.30;;;;;;4940869;28;20456;-68
2023/05/30 12:12:40;;;;;;;4.33;3.70;;;22.10;52.10;;;;;;4954320;28;20479;-68
2023/05/30 12:15:11;;;;;;;6.17;4.17;;;22.10;52.10;;;;;;4954131;28;20522;-70
2023/05/30 12:17:41;;;;;;;4.13;3.77;;;22.10;50.70;;;;;;4961744;28;20975;-69
2023/05/30 12:20:16;;;;;;;4.67;3.87;;;22.10;51.40;;;;;;4985246;28;20534;-69
2023/05/30 12:22:46;;;;;;;4.27;3.93;;;22.10;51.30;;;;;;4966964;28;20551;-69
2023/05/30 12:25:15;;;;;;;3.40;3.10;;;22.10;50.50;;;;;;4965215;28;20845;-70
2023/05/30 12:27:46;;;;;;;6.50;4.47;;;22.10;51.40;;;;;;4950008;28;20498;-69
2023/05/30 12:30:18;;;;;;;4.53;3.40;;;22.20;51.90;;;;;;4966688;28;20459;-70
2023/05/30 12:32:47;;;;;;;4.13;3.73;;;22.20;50.60;;;;;;4963494;28;20481;-68
2023/05/30 12:35:17;;;;;;;5.00;4.27;;;22.20;50.50;;;;;;4966182;28;20753;-68
2023/05/30 12:37:46;;;;;;;4.13;3.73;;;22.20;51.50;;;;;;4947025;28;21122;-69
2023/05/30 12:40:14;;;;;;;5.03;3.33;;;22.20;51.80;;;;;;4964364;28;20491;-68
2023/05/30 12:42:45;;;;;;;3.97;3.53;;;22.20;51.60;;;;;;4959857;28;20566;-70
2023/05/30 12:45:17;;;;;;;3.83;3.53;;;22.20;51.70;;;;;;4959252;28;20866;-68
2023/05/30 12:47:46;;;;;;;4.03;3.63;;;22.20;51.60;;;;;;4954525;28;20527;-68
2023/05/30 12:50:15;;;;;;;3.57;3.20;;;22.20;51.40;;;;;;4941137;29;20496;-66
2023/05/30 12:52:44;;;;;;;4.90;3.40;;;22.20;51.40;;;;;;4940110;28;21026;-69
2023/05/30 12:55:13;;;;;;;5.80;3.80;;;22.20;51.70;;;;;;4946168;28;20533;-69
2023/05/30 12:57:42;;;;;;;4.67;3.50;;;22.20;51.80;;;;;;4953147;28;21007;-70
2023/05/30 13:00:11;;;;;;;4.40;3.63;;;22.20;51.70;;;;;;4959881;28;20456;-68
2023/05/30 13:02:42;;;;;;;3.83;3.27;;;22.30;52.00;;;;;;4947778;28;20479;-69
2023/05/30 13:05:11;;;;;;;4.00;3.57;;;22.30;51.90;;;;;;4965598;28;20446;-69